Time;durP1;ratioP1;P1;durP2;ratioP2;P2;SDS_P1;SDS_P2;PMS_P1;PMS_P2;Temp;Humidity;BMP_temperature;BMP_pressure;BME280_temperature;BME280_humidity;BME280_pressure;Samples;Min_cycle;Max_cycle;Signal;HPM_P1;HPM_P2
2023/11/05 00:02:26;;;;;;;1.73;0.80;;;;;;;;;;5017558;28;20254;-66
2023/11/05 00:04:54;;;;;;;3.40;0.77;;;;;;;;;;5016866;28;20204;-66
2023/11/05 00:07:22;;;;;;;9.03;1.03;;;;;;;;;;5023780;28;20311;-65
2023/11/05 00:09:51;;;;;;;1.43;0.77;;;;;;;;;;5017832;28;20292;-65
2023/11/05 00:12:20;;;;;;;2.03;0.90;;;;;;;;;;5017623;28;20232;-66
2023/11/05 00:14:48;;;;;;;1.77;0.70;;;;;;;;;;5017932;28;20208;-66
2023/11/05 00:17:16;;;;;;;1.90;0.57;;;;;;;;;;5017593;28;20204;-66
2023/11/05 00:19:44;;;;;;;3.47;1.00;;;;;;;;;;5027184;28;20674;-66
2023/11/05 00:22:13;;;;;;;3.53;0.80;;;;;;;;;;5030355;28;20227;-66
2023/11/05 00:24:41;;;;;;;1.43;0.70;;;;;;;;;;5017853;28;20295;-66
2023/11/05 00:27:09;;;;;;;3.23;0.70;;;;;;;;;;5017872;28;20266;-65
2023/11/05 00:29:38;;;;;;;1.73;0.70;;;;;;;;;;5026277;28;20204;-65
2023/11/05 00:32:07;;;;;;;3.27;1.10;;;;;;;;;;5017637;28;20363;-66
2023/11/05 00:34:35;;;;;;;2.07;1.00;;;;;;;;;;5016149;28;20290;-65
2023/11/05 00:37:03;;;;;;;1.07;0.77;;;;;;;;;;5029838;28;20269;-66
2023/11/05 00:39:31;;;;;;;2.37;0.67;;;;;;;;;;5019028;28;20275;-65
2023/11/05 00:41:59;;;;;;;3.77;0.80;;;;;;;;;;5016514;28;20678;-65
2023/11/05 00:44:27;;;;;;;2.23;0.77;;;;;;;;;;5025256;28;20200;-66
2023/11/05 00:46:56;;;;;;;1.40;0.80;;;;;;;;;;5037172;28;20257;-66
2023/11/05 00:49:24;;;;;;;1.20;0.70;;;;;;;;;;5021169;28;20250;-65
2023/11/05 00:51:53;;;;;;;2.13;0.90;;;;;;;;;;5017593;28;20235;-65
2023/11/05 00:54:24;;;;;;;1.73;0.97;;;;;;;;;;5017037;28;20255;-65
2023/11/05 00:56:52;;;;;;;1.93;1.13;;;;;;;;;;5019322;28;20573;-65
2023/11/05 00:59:20;;;;;;;1.70;0.93;;;;;;;;;;5024891;28;20223;-65
2023/11/05 01:01:48;;;;;;;3.63;0.97;;;;;;;;;;5033086;28;20255;-65
2023/11/05 01:04:18;;;;;;;3.57;0.93;;;;;;;;;;5015948;28;20235;-65
2023/11/05 01:06:46;;;;;;;1.40;0.70;;;;;;;;;;5022854;28;20261;-65
2023/11/05 01:09:14;;;;;;;1.97;1.20;;;;;;;;;;5029873;28;20207;-65
2023/11/05 01:11:42;;;;;;;1.77;0.83;;;;;;;;;;5022230;28;20251;-65
2023/11/05 01:14:10;;;;;;;1.93;1.10;;;;;;;;;;5019686;28;20196;-66
2023/11/05 01:16:38;;;;;;;2.73;0.90;;;;;;;;;;5020329;28;20231;-65
2023/11/05 01:19:06;;;;;;;1.27;0.70;;;;;;;;;;5019487;28;20299;-65
2023/11/05 01:21:36;;;;;;;0.57;0.57;;;;;;;;;;5020747;28;20239;-65
2023/11/05 01:24:04;;;;;;;1.03;0.60;;;;;;;;;;5019271;28;20204;-64
2023/11/05 01:26:32;;;;;;;2.03;0.90;;;;;;;;;;5020691;28;20258;-65
2023/11/05 01:29:00;;;;;;;1.47;0.73;;;;;;;;;;5030181;28;20199;-65
2023/11/05 01:31:28;;;;;;;0.70;0.60;;;;;;;;;;5040302;28;20231;-64
2023/11/05 01:33:56;;;;;;;0.90;0.70;;;;;;;;;;5026049;28;20582;-65
2023/11/05 01:36:24;;;;;;;1.40;0.73;;;;;;;;;;5019982;28;20204;-65
2023/11/05 01:38:54;;;;;;;3.43;0.90;;;;;;;;;;5019760;28;20224;-64
2023/11/05 01:41:22;;;;;;;0.77;0.50;;;;;;;;;;5023976;28;20223;-65
2023/11/05 01:43:50;;;;;;;1.80;0.70;;;;;;;;;;5019890;28;20283;-65
2023/11/05 01:46:18;;;;;;;2.73;0.70;;;;;;;;;;5020263;28;20262;-64
2023/11/05 01:48:46;;;;;;;2.40;0.70;;;;;;;;;;5011608;28;20200;-65
2023/11/05 01:51:15;;;;;;;2.40;0.80;;;;;;;;;;5019482;28;20220;-64
2023/11/05 01:53:44;;;;;;;1.80;0.80;;;;;;;;;;5018975;28;20213;-65
2023/11/05 01:56:14;;;;;;;1.13;0.77;;;;;;;;;;5020163;28;20306;-65
2023/11/05 01:58:42;;;;;;;2.23;0.60;;;;;;;;;;5022990;28;20242;-64
2023/11/05 02:01:10;;;;;;;2.20;0.77;;;;;;;;;;5019333;28;20311;-65
2023/11/05 02:03:39;;;;;;;0.70;0.60;;;;;;;;;;5018718;28;20212;-65
2023/11/05 02:06:07;;;;;;;3.03;0.60;;;;;;;;;;5019936;28;20212;-65
2023/11/05 02:08:35;;;;;;;0.60;0.60;;;;;;;;;;5026322;28;20558;-65
2023/11/05 02:11:03;;;;;;;1.50;0.70;;;;;;;;;;5019545;28;20711;-65
2023/11/05 02:13:44;;;;;;;2.30;0.60;;;;;;;;;;5019735;28;20254;-64
2023/11/05 02:16:13;;;;;;;0.87;0.67;;;;;;;;;;5019774;28;20231;-65
2023/11/05 02:18:41;;;;;;;1.60;0.40;;;;;;;;;;5028342;28;20227;-65
2023/11/05 02:21:10;;;;;;;0.83;0.50;;;;;;;;;;5039147;28;20224;-64
2023/11/05 02:23:40;;;;;;;1.90;0.70;;;;;;;;;;5039345;28;20207;-64
2023/11/05 02:26:09;;;;;;;0.83;0.83;;;;;;;;;;5028782;28;20235;-65
2023/11/05 02:28:37;;;;;;;1.33;0.67;;;;;;;;;;5027955;28;20197;-65
2023/11/05 02:31:05;;;;;;;1.73;0.73;;;;;;;;;;5018769;28;20651;-65
2023/11/05 02:33:33;;;;;;;2.93;0.70;;;;;;;;;;5028100;28;20246;-65
2023/11/05 02:36:01;;;;;;;1.00;0.40;;;;;;;;;;5039163;28;20210;-65
2023/11/05 02:38:29;;;;;;;0.57;0.50;;;;;;;;;;5027899;28;20200;-64
2023/11/05 02:40:59;;;;;;;3.00;0.70;;;;;;;;;;5021310;28;20216;-65
2023/11/05 02:43:27;;;;;;;1.37;0.87;;;;;;;;;;5019803;28;20204;-64
2023/11/05 02:45:55;;;;;;;1.70;0.40;;;;;;;;;;5018477;28;20200;-65
2023/11/05 02:48:23;;;;;;;1.93;0.60;;;;;;;;;;5017859;28;20196;-65
2023/11/05 02:50:51;;;;;;;1.23;0.60;;;;;;;;;;5018249;28;20270;-65
2023/11/05 02:53:19;;;;;;;0.90;0.70;;;;;;;;;;5018436;28;20659;-65
2023/11/05 02:55:47;;;;;;;2.20;0.87;;;;;;;;;;5011130;28;20622;-65
2023/11/05 02:58:17;;;;;;;1.20;0.60;;;;;;;;;;5020468;28;21555;-65
2023/11/05 03:00:45;;;;;;;1.80;0.77;;;;;;;;;;5020175;28;20252;-65
2023/11/05 03:03:13;;;;;;;2.40;0.60;;;;;;;;;;5017995;28;20648;-65
2023/11/05 03:05:41;;;;;;;1.50;0.83;;;;;;;;;;5018307;28;20262;-65
2023/11/05 03:08:10;;;;;;;3.73;0.80;;;;;;;;;;5032333;28;20207;-65
2023/11/05 03:10:39;;;;;;;1.67;0.70;;;;;;;;;;5026035;28;20204;-64
2023/11/05 03:13:07;;;;;;;0.60;0.60;;;;;;;;;;5017978;28;20227;-65
2023/11/05 03:15:36;;;;;;;1.60;0.60;;;;;;;;;;5034131;28;20212;-65
2023/11/05 03:18:04;;;;;;;1.60;0.70;;;;;;;;;;5017451;28;20201;-64
2023/11/05 03:20:33;;;;;;;1.53;0.93;;;;;;;;;;5017769;28;20278;-65
2023/11/05 03:23:02;;;;;;;0.60;0.60;;;;;;;;;;5017952;28;20702;-64
2023/11/05 03:25:30;;;;;;;1.50;0.70;;;;;;;;;;5018565;28;20208;-65
2023/11/05 03:27:58;;;;;;;1.97;0.70;;;;;;;;;;5021304;28;20199;-65
2023/11/05 03:30:26;;;;;;;0.60;0.60;;;;;;;;;;5036948;28;20665;-65
2023/11/05 03:32:56;;;;;;;1.70;0.60;;;;;;;;;;5030212;28;20726;-65
2023/11/05 03:35:24;;;;;;;0.87;0.87;;;;;;;;;;5017827;28;20231;-65
2023/11/05 03:37:52;;;;;;;0.67;0.67;;;;;;;;;;5017176;28;20574;-65
2023/11/05 03:40:20;;;;;;;0.60;0.60;;;;;;;;;;5017931;28;20263;-65
2023/11/05 03:42:48;;;;;;;1.23;0.60;;;;;;;;;;5022440;28;20224;-64
2023/11/05 03:45:16;;;;;;;1.40;0.70;;;;;;;;;;5017512;28;20243;-66
2023/11/05 03:47:44;;;;;;;0.73;0.73;;;;;;;;;;5021059;28;20238;-64
2023/11/05 03:50:13;;;;;;;1.70;0.70;;;;;;;;;;5018154;28;20204;-66
2023/11/05 03:52:41;;;;;;;2.20;0.57;;;;;;;;;;5017497;28;20224;-66
2023/11/05 03:55:09;;;;;;;2.67;1.00;;;;;;;;;;5017720;28;20215;-66
2023/11/05 03:57:38;;;;;;;0.80;0.60;;;;;;;;;;5020452;28;20261;-66
2023/11/05 04:00:06;;;;;;;0.63;0.60;;;;;;;;;;5017199;28;20692;-64
2023/11/05 04:02:34;;;;;;;1.40;0.60;;;;;;;;;;5016899;28;20244;-66
2023/11/05 04:05:06;;;;;;;2.17;0.70;;;;;;;;;;5018099;28;20212;-64
2023/11/05 04:07:36;;;;;;;1.23;0.70;;;;;;;;;;5024873;28;20209;-65
2023/11/05 04:10:05;;;;;;;1.73;0.70;;;;;;;;;;5029002;28;20268;-64
2023/11/05 04:12:34;;;;;;;0.83;0.70;;;;;;;;;;5017916;28;20220;-65
2023/11/05 04:15:05;;;;;;;1.17;0.80;;;;;;;;;;5017979;28;20204;-64
2023/11/05 04:17:33;;;;;;;1.70;0.73;;;;;;;;;;5025571;28;20208;-64
2023/11/05 04:20:01;;;;;;;0.80;0.50;;;;;;;;;;5037603;28;20227;-65
2023/11/05 04:22:29;;;;;;;0.97;0.60;;;;;;;;;;5037264;28;20646;-64
2023/11/05 04:24:59;;;;;;;2.30;0.63;;;;;;;;;;5037650;28;20215;-65
2023/11/05 04:27:27;;;;;;;3.43;0.70;;;;;;;;;;5025778;28;20204;-65
2023/11/05 04:29:55;;;;;;;2.00;0.60;;;;;;;;;;5018069;28;20662;-65
2023/11/05 04:32:23;;;;;;;0.90;0.87;;;;;;;;;;5016802;28;20224;-65
2023/11/05 04:34:51;;;;;;;0.97;0.60;;;;;;;;;;5016885;28;20299;-65
2023/11/05 04:37:19;;;;;;;2.00;0.80;;;;;;;;;;5017292;28;20300;-64
2023/11/05 04:39:47;;;;;;;1.03;0.60;;;;;;;;;;5009421;28;20292;-64
2023/11/05 04:42:17;;;;;;;0.67;0.40;;;;;;;;;;5020455;28;20323;-64
2023/11/05 04:44:45;;;;;;;0.90;0.63;;;;;;;;;;5012934;28;20235;-64
2023/11/05 04:47:13;;;;;;;1.90;0.90;;;;;;;;;;5020529;28;20572;-64
2023/11/05 04:49:42;;;;;;;1.63;0.57;;;;;;;;;;5020195;28;20560;-64
2023/11/05 04:52:10;;;;;;;0.57;0.57;;;;;;;;;;5020574;28;20597;-67
2023/11/05 04:54:40;;;;;;;1.80;0.50;;;;;;;;;;5021343;28;20208;-64
2023/11/05 04:57:08;;;;;;;1.67;0.60;;;;;;;;;;5020836;28;20212;-64
2023/11/05 04:59:39;;;;;;;1.90;0.70;;;;;;;;;;5024616;28;20204;-64
2023/11/05 05:02:07;;;;;;;0.67;0.53;;;;;;;;;;5020102;28;20232;-64
2023/11/05 05:04:35;;;;;;;3.60;0.60;;;;;;;;;;5020776;28;20645;-65
2023/11/05 05:07:04;;;;;;;0.93;0.63;;;;;;;;;;5026414;28;20257;-64
2023/11/05 05:09:31;;;;;;;2.50;0.80;;;;;;;;;;5020609;28;20212;-65
2023/11/05 05:11:59;;;;;;;1.07;0.57;;;;;;;;;;5020330;28;20649;-64
2023/11/05 05:14:27;;;;;;;0.97;0.70;;;;;;;;;;5022648;28;20205;-63
2023/11/05 05:16:57;;;;;;;1.20;0.63;;;;;;;;;;5024892;28;20245;-63
2023/11/05 05:19:25;;;;;;;2.67;0.50;;;;;;;;;;5018974;28;20200;-63
2023/11/05 05:21:53;;;;;;;3.17;0.97;;;;;;;;;;5029126;28;20239;-63
2023/11/05 05:24:21;;;;;;;1.90;0.80;;;;;;;;;;5028934;28;20203;-63
2023/11/05 05:26:49;;;;;;;1.37;0.60;;;;;;;;;;5029927;28;20292;-63
2023/11/05 05:29:17;;;;;;;0.73;0.50;;;;;;;;;;5026774;28;20204;-63
2023/11/05 05:31:46;;;;;;;0.50;0.50;;;;;;;;;;5016666;28;20224;-63
2023/11/05 05:34:16;;;;;;;1.87;0.77;;;;;;;;;;5030146;28;20277;-65
2023/11/05 05:36:44;;;;;;;0.87;0.80;;;;;;;;;;5026724;28;20211;-63
2023/11/05 05:39:13;;;;;;;1.33;0.57;;;;;;;;;;5030397;28;20648;-63
2023/11/05 05:41:41;;;;;;;0.60;0.50;;;;;;;;;;5028332;28;20224;-63
2023/11/05 05:44:09;;;;;;;1.07;1.07;;;;;;;;;;5029305;28;20204;-63
2023/11/05 05:46:37;;;;;;;0.37;0.30;;;;;;;;;;5027902;28;20204;-63
2023/11/05 05:49:06;;;;;;;0.40;0.40;;;;;;;;;;5030570;28;20199;-63
2023/11/05 05:51:35;;;;;;;2.80;0.70;;;;;;;;;;5028784;28;20215;-64
2023/11/05 05:54:04;;;;;;;2.97;0.60;;;;;;;;;;5027304;28;20196;-63
2023/11/05 05:56:32;;;;;;;1.13;0.80;;;;;;;;;;5028465;28;20196;-63
2023/11/05 05:59:00;;;;;;;0.57;0.57;;;;;;;;;;5028692;28;20245;-65
2023/11/05 06:01:28;;;;;;;0.50;0.50;;;;;;;;;;5032859;28;20281;-63
2023/11/05 06:03:56;;;;;;;0.40;0.40;;;;;;;;;;5030236;28;20253;-63
2023/11/05 06:06:25;;;;;;;1.57;0.50;;;;;;;;;;5031004;28;20622;-64
2023/11/05 06:08:54;;;;;;;0.60;0.60;;;;;;;;;;5031657;28;20223;-63
2023/11/05 06:11:23;;;;;;;0.53;0.53;;;;;;;;;;5028800;28;20248;-63
2023/11/05 06:13:50;;;;;;;0.93;0.40;;;;;;;;;;5030347;28;20638;-64
2023/11/05 06:16:19;;;;;;;1.27;0.60;;;;;;;;;;5028765;28;20683;-64
2023/11/05 06:18:47;;;;;;;1.30;0.50;;;;;;;;;;5029244;28;20246;-63
2023/11/05 06:21:15;;;;;;;1.90;0.67;;;;;;;;;;5030859;28;20224;-63
2023/11/05 06:23:43;;;;;;;1.00;0.50;;;;;;;;;;5031967;28;20208;-63
2023/11/05 06:26:12;;;;;;;0.50;0.50;;;;;;;;;;5028511;28;20610;-63
2023/11/05 06:28:40;;;;;;;1.23;0.37;;;;;;;;;;5030289;28;20204;-63
2023/11/05 06:31:09;;;;;;;1.70;0.90;;;;;;;;;;5025726;28;20224;-63
2023/11/05 06:33:37;;;;;;;3.13;0.50;;;;;;;;;;5027763;28;20630;-63
2023/11/05 06:36:08;;;;;;;0.90;0.60;;;;;;;;;;5028861;28;20632;-63
2023/11/05 06:38:40;;;;;;;0.40;0.40;;;;;;;;;;5027302;28;20253;-63
2023/11/05 06:41:10;;;;;;;1.57;0.50;;;;;;;;;;5017133;28;20602;-63
2023/11/05 06:43:40;;;;;;;1.47;0.60;;;;;;;;;;5026616;28;20563;-63
2023/11/05 06:46:11;;;;;;;1.37;0.57;;;;;;;;;;5027471;28;20207;-62
2023/11/05 06:48:39;;;;;;;1.60;0.93;;;;;;;;;;5026714;28;20208;-63
2023/11/05 06:51:07;;;;;;;1.43;0.50;;;;;;;;;;5027621;28;20223;-63
2023/11/05 06:53:35;;;;;;;0.63;0.40;;;;;;;;;;5026987;28;20667;-63
2023/11/05 06:56:04;;;;;;;1.03;0.50;;;;;;;;;;5028544;28;20631;-63
2023/11/05 06:58:32;;;;;;;1.03;0.53;;;;;;;;;;5028516;28;20706;-63
2023/11/05 07:01:03;;;;;;;1.03;0.50;;;;;;;;;;5028526;28;20227;-63
2023/11/05 07:03:35;;;;;;;0.77;0.50;;;;;;;;;;5028691;28;20658;-63
2023/11/05 07:06:04;;;;;;;3.17;0.43;;;;;;;;;;5018725;28;20208;-63
2023/11/05 07:08:32;;;;;;;2.93;0.60;;;;;;;;;;5033369;28;20207;-63
2023/11/05 07:11:01;;;;;;;1.07;0.40;;;;;;;;;;5028464;28;20200;-63
2023/11/05 07:13:28;;;;;;;3.30;0.50;;;;;;;;;;5016742;28;20208;-63
2023/11/05 07:15:57;;;;;;;0.87;0.70;;;;;;;;;;5018978;28;20609;-63
2023/11/05 07:18:26;;;;;;;0.43;0.43;;;;;;;;;;5016337;28;20726;-63
2023/11/05 07:20:54;;;;;;;1.10;0.70;;;;;;;;;;5016779;28;20204;-63
2023/11/05 07:23:22;;;;;;;1.87;0.60;;;;;;;;;;5017709;28;20231;-63
2023/11/05 07:25:50;;;;;;;1.07;0.67;;;;;;;;;;5037022;28;20215;-63
2023/11/05 07:28:18;;;;;;;1.50;0.57;;;;;;;;;;5037959;28;20261;-63
2023/11/05 07:30:46;;;;;;;1.37;0.67;;;;;;;;;;5030321;28;20214;-63
2023/11/05 07:33:14;;;;;;;0.97;0.70;;;;;;;;;;5037481;28;20771;-62
2023/11/05 07:35:43;;;;;;;0.60;0.60;;;;;;;;;;5038279;28;20211;-63
2023/11/05 07:38:11;;;;;;;1.40;0.50;;;;;;;;;;5037999;28;20257;-63
2023/11/05 07:41:04;;;;;;;1.50;0.50;;;;;;;;;;5036660;28;20218;-63
2023/11/05 07:43:33;;;;;;;1.37;0.60;;;;;;;;;;5018169;28;20235;-63
2023/11/05 07:46:08;;;;;;;1.43;0.60;;;;;;;;;;5018411;28;20240;-62
2023/11/05 07:48:36;;;;;;;0.90;0.70;;;;;;;;;;5017947;28;20203;-66
2023/11/05 07:51:06;;;;;;;0.50;0.50;;;;;;;;;;5017928;28;20228;-67
2023/11/05 07:53:34;;;;;;;3.00;0.80;;;;;;;;;;5022918;28;20234;-66
2023/11/05 07:56:02;;;;;;;0.80;0.70;;;;;;;;;;5022615;28;20204;-65
2023/11/05 07:58:30;;;;;;;2.70;2.50;;;;;;;;;;5025552;28;20214;-66
2023/11/05 08:00:58;;;;;;;0.97;0.90;;;;;;;;;;5032621;28;20204;-65
2023/11/05 08:03:27;;;;;;;1.17;1.00;;;;;;;;;;5017915;28;20232;-66
2023/11/05 08:05:55;;;;;;;1.83;0.70;;;;;;;;;;5019017;28;20208;-66
2023/11/05 08:11:53;;;;;;;1.80;0.90;;;;;;;;;;5017946;28;20246;-65
2023/11/05 08:14:21;;;;;;;3.03;0.60;;;;;;;;;;5023905;28;20211;-65
2023/11/05 08:16:50;;;;;;;1.07;0.87;;;;;;;;;;5032886;28;20204;-65
2023/11/05 08:19:18;;;;;;;0.83;0.73;;;;;;;;;;5030795;28;20231;-65
2023/11/05 08:21:46;;;;;;;0.77;0.77;;;;;;;;;;5034038;28;20253;-66
2023/11/05 08:24:14;;;;;;;0.53;0.53;;;;;;;;;;5031537;28;20203;-65
2023/11/05 08:26:56;;;;;;;3.10;0.80;;;;;;;;;;5029780;28;20224;-65
2023/11/05 08:29:24;;;;;;;0.67;0.50;;;;;;;;;;5030439;28;20199;-64
2023/11/05 08:31:52;;;;;;;1.73;0.50;;;;;;;;;;5027219;28;20654;-66
2023/11/05 08:34:45;;;;;;;2.27;0.63;;;;;;;;;;5020123;28;20273;-65
2023/11/05 08:37:13;;;;;;;1.73;0.60;;;;;;;;;;5040866;28;20245;-65
2023/11/05 08:39:41;;;;;;;0.37;0.37;;;;;;;;;;5030552;28;20208;-63
2023/11/05 08:42:11;;;;;;;0.50;0.50;;;;;;;;;;5025883;28;20268;-63
2023/11/05 08:44:39;;;;;;;0.40;0.40;;;;;;;;;;5029692;28;20222;-63
2023/11/05 08:47:07;;;;;;;1.23;0.40;;;;;;;;;;5029244;28;20196;-63
2023/11/05 08:49:36;;;;;;;1.20;0.40;;;;;;;;;;5029949;28;20200;-64
2023/11/05 08:55:28;;;;;;;1.03;0.57;;;;;;;;;;5026493;28;20719;-65
2023/11/05 08:57:58;;;;;;;1.70;0.57;;;;;;;;;;5024205;28;20195;-64
2023/11/05 09:00:28;;;;;;;1.30;0.53;;;;;;;;;;5023453;28;20207;-65
2023/11/05 09:02:56;;;;;;;0.40;0.40;;;;;;;;;;5029216;28;20228;-64
2023/11/05 09:05:24;;;;;;;0.70;0.50;;;;;;;;;;5030141;28;20725;-64
2023/11/05 09:07:52;;;;;;;0.40;0.40;;;;;;;;;;5020285;28;20652;-65
2023/11/05 09:10:48;;;;;;;1.27;0.50;;;;;;;;;;5020493;28;20206;-65
2023/11/05 09:13:19;;;;;;;0.80;0.50;;;;;;;;;;5020148;28;20211;-65
2023/11/05 09:15:49;;;;;;;0.53;0.50;;;;;;;;;;5020232;28;20254;-64
2023/11/05 09:18:17;;;;;;;0.60;0.60;;;;;;;;;;5028226;28;20207;-64
2023/11/05 09:20:46;;;;;;;0.60;0.30;;;;;;;;;;5030582;28;20208;-64
2023/11/05 09:23:14;;;;;;;0.40;0.40;;;;;;;;;;5027226;28;20581;-64
2023/11/05 09:25:42;;;;;;;1.17;0.50;;;;;;;;;;5020720;28;20212;-65
2023/11/05 09:28:10;;;;;;;0.20;0.20;;;;;;;;;;5020561;28;20299;-63
2023/11/05 09:30:42;;;;;;;1.03;0.30;;;;;;;;;;5019778;28;20212;-64
2023/11/05 09:33:14;;;;;;;0.50;0.50;;;;;;;;;;5020395;28;20251;-64
2023/11/05 09:35:48;;;;;;;1.10;0.20;;;;;;;;;;5020354;28;20236;-63
2023/11/05 09:38:16;;;;;;;0.67;0.47;;;;;;;;;;5026103;28;20201;-64
2023/11/05 09:40:45;;;;;;;0.30;0.30;;;;;;;;;;5029785;28;20681;-63
2023/11/05 09:43:13;;;;;;;0.43;0.30;;;;;;;;;;5028833;28;20224;-64
2023/11/05 09:45:43;;;;;;;0.60;0.30;;;;;;;;;;5027206;28;20204;-64
2023/11/05 09:48:12;;;;;;;0.47;0.40;;;;;;;;;;5028060;28;20200;-64
2023/11/05 09:50:41;;;;;;;1.67;0.30;;;;;;;;;;5038730;28;20219;-64
2023/11/05 09:53:11;;;;;;;0.13;0.13;;;;;;;;;;5039844;28;20222;-64
2023/11/05 09:55:39;;;;;;;0.63;0.43;;;;;;;;;;5024527;28;20212;-64
2023/11/05 09:58:07;;;;;;;0.53;0.30;;;;;;;;;;5032463;28;20555;-64
2023/11/05 10:00:36;;;;;;;0.70;0.30;;;;;;;;;;5036746;28;20658;-64
2023/11/05 10:06:33;;;;;;;0.20;0.20;;;;;;;;;;5037747;28;20186;-64
2023/11/05 10:09:03;;;;;;;0.50;0.40;;;;;;;;;;5033837;28;20201;-64
2023/11/05 10:11:31;;;;;;;1.67;0.27;;;;;;;;;;5019810;28;20761;-64
2023/11/05 10:13:59;;;;;;;0.37;0.37;;;;;;;;;;5023237;28;20566;-64
2023/11/05 10:16:46;;;;;;;0.60;0.23;;;;;;;;;;5023828;28;20267;-64
2023/11/05 10:19:14;;;;;;;0.33;0.33;;;;;;;;;;5036199;28;20232;-64
2023/11/05 10:21:45;;;;;;;0.30;0.30;;;;;;;;;;5029432;28;20249;-64
2023/11/05 10:27:35;;;;;;;0.33;0.30;;;;;;;;;;5021799;28;20187;-64
2023/11/05 10:30:04;;;;;;;0.37;0.30;;;;;;;;;;5019817;28;20283;-64
2023/11/05 10:32:34;;;;;;;0.30;0.30;;;;;;;;;;5035361;28;20223;-64
2023/11/05 10:35:03;;;;;;;0.97;0.30;;;;;;;;;;5038911;28;20214;-64
2023/11/05 10:37:33;;;;;;;0.33;0.27;;;;;;;;;;5039416;28;20204;-64
2023/11/05 10:40:05;;;;;;;0.20;0.20;;;;;;;;;;5038877;28;20207;-64
2023/11/05 10:42:34;;;;;;;0.30;0.30;;;;;;;;;;5022987;28;20231;-64
2023/11/05 10:45:03;;;;;;;0.23;0.23;;;;;;;;;;5019109;28;20212;-64
2023/11/05 10:47:32;;;;;;;0.37;0.33;;;;;;;;;;5019033;28;20208;-64
2023/11/05 10:50:16;;;;;;;0.30;0.30;;;;;;;;;;5018865;28;20219;-64
2023/11/05 10:52:47;;;;;;;0.60;0.60;;;;;;;;;;5018621;28;20577;-64
2023/11/05 10:55:16;;;;;;;2.13;0.40;;;;;;;;;;5024893;28;20211;-63
2023/11/05 10:57:46;;;;;;;1.70;0.40;;;;;;;;;;5018961;28;20217;-64
2023/11/05 11:03:35;;;;;;;0.40;0.40;;;;;;;;;;5019239;28;20223;-64
2023/11/05 11:06:05;;;;;;;1.17;0.40;;;;;;;;;;5030635;28;20691;-64
2023/11/05 11:08:37;;;;;;;0.30;0.30;;;;;;;;;;5018258;28;20216;-64
2023/11/05 11:11:15;;;;;;;1.13;0.40;;;;;;;;;;5017923;28;20263;-64
2023/11/05 11:13:57;;;;;;;0.30;0.30;;;;;;;;;;5018761;28;20243;-64
2023/11/05 11:16:33;;;;;;;0.40;0.40;;;;;;;;;;5026544;28;20195;-64
2023/11/05 11:19:12;;;;;;;0.30;0.30;;;;;;;;;;5018549;28;20663;-64
2023/11/05 11:21:44;;;;;;;0.33;0.33;;;;;;;;;;5019497;28;20283;-64
2023/11/05 11:24:33;;;;;;;0.30;0.30;;;;;;;;;;5037792;28;20254;-64
2023/11/05 11:27:04;;;;;;;0.23;0.23;;;;;;;;;;5038296;28;20235;-64
2023/11/05 11:29:33;;;;;;;0.43;0.43;;;;;;;;;;5038345;28;20237;-64
2023/11/05 11:32:04;;;;;;;0.30;0.30;;;;;;;;;;5037605;28;20290;-64
2023/11/05 11:34:32;;;;;;;0.53;0.30;;;;;;;;;;5033610;28;20207;-64
2023/11/05 11:37:01;;;;;;;0.40;0.40;;;;;;;;;;5024865;28;20239;-64
2023/11/05 11:39:29;;;;;;;0.40;0.40;;;;;;;;;;5030315;28;20210;-64
2023/11/05 11:42:00;;;;;;;0.27;0.27;;;;;;;;;;5022604;28;20252;-64
2023/11/05 11:44:28;;;;;;;0.30;0.30;;;;;;;;;;5018247;28;20231;-64
2023/11/05 11:46:56;;;;;;;1.03;0.43;;;;;;;;;;5017827;28;20582;-64
2023/11/05 11:49:27;;;;;;;0.77;0.50;;;;;;;;;;5018049;28;20212;-64
2023/11/05 11:51:55;;;;;;;0.20;0.20;;;;;;;;;;5017719;28;20746;-64
2023/11/05 11:54:25;;;;;;;0.80;0.30;;;;;;;;;;5017717;28;20195;-64
2023/11/05 11:56:54;;;;;;;0.47;0.40;;;;;;;;;;5028770;28;20207;-64
2023/11/05 11:59:25;;;;;;;0.80;0.43;;;;;;;;;;5037738;28;20337;-64
2023/11/05 12:01:54;;;;;;;0.40;0.40;;;;;;;;;;5037383;28;20223;-64
2023/11/05 12:04:26;;;;;;;0.30;0.30;;;;;;;;;;5037332;28;20721;-64
2023/11/05 12:06:57;;;;;;;0.87;0.50;;;;;;;;;;5037929;28;20251;-64
2023/11/05 12:09:25;;;;;;;1.27;0.60;;;;;;;;;;5037810;28;20258;-63
2023/11/05 12:11:57;;;;;;;0.60;0.50;;;;;;;;;;5025667;28;20228;-63
2023/11/05 12:14:27;;;;;;;1.20;0.40;;;;;;;;;;5032529;28;20200;-63
2023/11/05 12:16:56;;;;;;;0.40;0.40;;;;;;;;;;5017770;28;20208;-63
2023/11/05 12:19:25;;;;;;;1.33;0.50;;;;;;;;;;5017828;28;20208;-63
2023/11/05 12:21:53;;;;;;;1.10;0.37;;;;;;;;;;5017552;28;20698;-64
2023/11/05 12:24:21;;;;;;;0.30;0.30;;;;;;;;;;5017661;28;20322;-64
2023/11/05 12:26:50;;;;;;;0.20;0.20;;;;;;;;;;5016705;28;20212;-65
2023/11/05 12:29:18;;;;;;;0.50;0.50;;;;;;;;;;5015814;28;20287;-66
2023/11/05 12:31:47;;;;;;;0.20;0.20;;;;;;;;;;5016748;28;20286;-63
2023/11/05 12:34:15;;;;;;;0.20;0.20;;;;;;;;;;5017176;28;20255;-64
2023/11/05 12:36:44;;;;;;;0.30;0.20;;;;;;;;;;5017166;28;20759;-64
2023/11/05 12:39:12;;;;;;;0.63;0.40;;;;;;;;;;5017114;28;20244;-63
2023/11/05 12:41:40;;;;;;;1.67;0.20;;;;;;;;;;5017225;28;20695;-63
2023/11/05 12:44:08;;;;;;;0.10;0.10;;;;;;;;;;5016974;28;21310;-65
2023/11/05 12:46:36;;;;;;;0.20;0.20;;;;;;;;;;5020798;28;20306;-64
2023/11/05 12:49:07;;;;;;;0.20;0.20;;;;;;;;;;5017047;28;20212;-63
2023/11/05 12:51:35;;;;;;;0.30;0.30;;;;;;;;;;5017024;28;20236;-64
2023/11/05 12:54:03;;;;;;;1.23;0.30;;;;;;;;;;5017270;28;20205;-65
2023/11/05 12:56:31;;;;;;;0.30;0.30;;;;;;;;;;5017100;28;20295;-65
2023/11/05 12:58:59;;;;;;;0.30;0.30;;;;;;;;;;5017131;28;20205;-65
2023/11/05 13:01:28;;;;;;;0.30;0.30;;;;;;;;;;5016944;28;20738;-65
2023/11/05 13:04:03;;;;;;;0.33;0.33;;;;;;;;;;5020156;28;20207;-63
2023/11/05 13:06:33;;;;;;;0.33;0.30;;;;;;;;;;5040268;28;20239;-64
2023/11/05 13:09:01;;;;;;;0.23;0.20;;;;;;;;;;5040309;28;20208;-64
2023/11/05 13:11:29;;;;;;;2.00;0.47;;;;;;;;;;5032573;28;20254;-63
2023/11/05 13:13:57;;;;;;;0.30;0.30;;;;;;;;;;5020636;28;20238;-63
2023/11/05 13:16:26;;;;;;;0.60;0.30;;;;;;;;;;5026809;28;20216;-63
2023/11/05 13:18:54;;;;;;;0.57;0.40;;;;;;;;;;5028068;28;20294;-64
2023/11/05 13:21:22;;;;;;;0.90;0.30;;;;;;;;;;5035700;28;20219;-63
2023/11/05 13:23:52;;;;;;;0.97;0.50;;;;;;;;;;5040111;28;20273;-64
2023/11/05 13:26:20;;;;;;;1.60;0.60;;;;;;;;;;5040407;28;20227;-64
2023/11/05 13:28:50;;;;;;;0.10;0.10;;;;;;;;;;5026250;28;20240;-64
2023/11/05 13:31:19;;;;;;;0.20;0.20;;;;;;;;;;5018178;28;20238;-64
2023/11/05 13:33:47;;;;;;;0.67;0.43;;;;;;;;;;5024512;28;20207;-66
2023/11/05 13:39:28;;;;;;;0.90;0.40;;;;;;;;;;5025731;28;20204;-65
2023/11/05 13:41:57;;;;;;;0.70;0.30;;;;;;;;;;5030482;28;20224;-66
2023/11/05 13:44:25;;;;;;;0.40;0.33;;;;;;;;;;5020358;28;20211;-66
2023/11/05 13:46:53;;;;;;;0.30;0.30;;;;;;;;;;5020115;28;20204;-66
2023/11/05 13:49:21;;;;;;;0.40;0.40;;;;;;;;;;5020284;28;20236;-66
2023/11/05 13:51:49;;;;;;;0.50;0.43;;;;;;;;;;5020134;28;20264;-66
2023/11/05 13:54:17;;;;;;;0.30;0.30;;;;;;;;;;5019981;28;20223;-66
2023/11/05 13:56:48;;;;;;;2.30;0.50;;;;;;;;;;5038065;28;20254;-66
2023/11/05 13:59:16;;;;;;;2.40;0.40;;;;;;;;;;5039989;28;20277;-64
2023/11/05 14:01:44;;;;;;;0.37;0.37;;;;;;;;;;5039414;28;20277;-65
2023/11/05 14:04:12;;;;;;;1.53;0.53;;;;;;;;;;5039813;28;20211;-66
2023/11/05 14:06:41;;;;;;;1.17;0.50;;;;;;;;;;5039667;28;20353;-65
2023/11/05 14:09:10;;;;;;;0.80;0.60;;;;;;;;;;5039797;28;20211;-65
2023/11/05 14:11:38;;;;;;;0.73;0.50;;;;;;;;;;5035757;28;20228;-65
2023/11/05 14:14:10;;;;;;;2.47;0.50;;;;;;;;;;5021307;28;20204;-65
2023/11/05 14:16:38;;;;;;;1.03;0.60;;;;;;;;;;5031143;28;20206;-65
2023/11/05 14:19:06;;;;;;;0.40;0.40;;;;;;;;;;5019693;28;20216;-65
2023/11/05 14:21:35;;;;;;;0.57;0.53;;;;;;;;;;5019392;28;20283;-65
2023/11/05 14:24:03;;;;;;;0.63;0.50;;;;;;;;;;5019739;28;20270;-64
2023/11/05 14:26:31;;;;;;;0.57;0.57;;;;;;;;;;5019265;28;20294;-64
2023/11/05 14:28:59;;;;;;;1.70;0.80;;;;;;;;;;5022391;28;20559;-65
2023/11/05 14:31:29;;;;;;;1.83;0.73;;;;;;;;;;5039009;28;20284;-65
2023/11/05 14:33:57;;;;;;;2.50;0.60;;;;;;;;;;5025155;28;20746;-65
2023/11/05 14:36:25;;;;;;;0.83;0.60;;;;;;;;;;5018238;28;20319;-64
2023/11/05 14:38:54;;;;;;;1.23;0.70;;;;;;;;;;5018668;28;20208;-64
2023/11/05 14:41:25;;;;;;;2.33;0.50;;;;;;;;;;5024144;28;20633;-65
2023/11/05 14:44:09;;;;;;;4.00;0.60;;;;;;;;;;5031495;28;20737;-65
2023/11/05 14:46:39;;;;;;;0.93;0.40;;;;;;;;;;5021851;28;20278;-65
2023/11/05 14:49:07;;;;;;;2.63;0.67;;;;;;;;;;5018638;28;20762;-65
2023/11/05 14:51:37;;;;;;;1.10;0.60;;;;;;;;;;5019095;28;20227;-65
2023/11/05 14:54:05;;;;;;;5.97;0.73;;;;;;;;;;5019076;28;20239;-65
2023/11/05 14:56:33;;;;;;;1.10;0.60;;;;;;;;;;5019040;28;20698;-65
2023/11/05 14:59:03;;;;;;;2.27;0.70;;;;;;;;;;5018964;28;20236;-66
2023/11/05 15:01:51;;;;;;;1.00;0.60;;;;;;;;;;4992002;28;20237;-66
2023/11/05 15:04:20;;;;;;;1.23;0.60;;;;;;;;;;5018359;28;20235;-70
2023/11/05 15:06:48;;;;;;;1.40;0.50;;;;;;;;;;5016528;28;20270;-71
2023/11/05 15:09:26;;;;;;;;;;;;;;;;;;;;;
2023/11/05 15:15:19;;;;;;;2.23;0.80;;;;;;;;;;5022473;28;20187;-68
2023/11/05 15:17:48;;;;;;;3.13;1.10;;;;;;;;;;5021983;28;20204;-69
2023/11/05 15:20:16;;;;;;;2.17;1.50;;;;;;;;;;5030921;28;20208;-69